Time;durP1;ratioP1;P1;durP2;ratioP2;P2;SDS_P1;SDS_P2;PMS_P1;PMS_P2;Temp;Humidity;BMP_temperature;BMP_pressure;BME280_temperature;BME280_humidity;BME280_pressure;Samples;Min_cycle;Max_cycle;Signal;HPM_P1;HPM_P2
2022/05/31 00:01:01;;;;;;;1.42;0.95;;;;;;;21.65;41.19;101342.81;5046999;28;20029;-43
2022/05/31 00:03:26;;;;;;;0.77;0.77;;;;;;;21.65;41.20;101337.59;5033720;28;20029;-40
2022/05/31 00:05:52;;;;;;;1.20;1.17;;;;;;;21.65;40.91;101337.59;5068098;28;20025;-39
2022/05/31 00:08:17;;;;;;;1.67;1.15;;;;;;;21.66;41.03;101334.09;5070795;28;20033;-42
2022/05/31 00:10:42;;;;;;;1.02;0.95;;;;;;;21.65;40.79;101333.25;5062895;28;20041;-39
2022/05/31 00:13:08;;;;;;;4.30;1.00;;;;;;;21.66;41.17;101336.72;5045450;28;20036;-43
2022/05/31 00:15:33;;;;;;;0.90;0.90;;;;;;;21.65;41.01;101332.34;5069859;28;20115;-39
2022/05/31 00:17:58;;;;;;;1.15;1.10;;;;;;;21.66;41.09;101334.09;5052965;28;20127;-40
2022/05/31 00:20:25;;;;;;;2.53;0.85;;;;;;;21.64;41.07;101335.81;5050623;28;20119;-42
2022/05/31 00:22:50;;;;;;;0.77;0.77;;;;;;;21.65;41.03;101332.34;5053186;28;20072;-42
2022/05/31 00:25:16;;;;;;;1.27;1.00;;;;;;;21.65;41.14;101332.34;5048239;28;20059;-43
2022/05/31 00:27:41;;;;;;;1.95;1.38;;;;;;;21.65;40.94;101327.09;5058490;28;20033;-39
2022/05/31 00:30:07;;;;;;;0.90;0.90;;;;;;;21.64;41.18;101325.34;5053641;28;20024;-44
2022/05/31 00:32:36;;;;;;;1.15;0.90;;;;;;;21.64;41.25;101322.72;5073904;28;20079;-42
2022/05/31 00:35:22;;;;;;;0.85;0.85;;;;;;;21.64;40.91;101325.34;5056204;28;20028;-41
2022/05/31 00:37:48;;;;;;;1.35;1.25;;;;;;;21.64;40.90;101325.34;5071723;28;20037;-44
2022/05/31 00:40:15;;;;;;;1.27;0.80;;;;;;;21.64;40.97;101330.59;5044236;28;20021;-43
2022/05/31 00:42:56;;;;;;;2.15;0.98;;;;;;;21.64;41.19;101326.25;5047807;28;20060;-43
2022/05/31 00:45:59;;;;;;;1.73;1.10;;;;;;;21.63;41.04;101323.53;5056014;28;20036;-43
2022/05/31 00:48:30;;;;;;;1.95;1.23;;;;;;;21.65;41.16;101334.97;5067638;28;20474;-44
2022/05/31 00:50:59;;;;;;;0.73;0.73;;;;;;;21.64;41.40;101330.59;5074134;28;20036;-45
2022/05/31 00:53:35;;;;;;;4.20;1.00;;;;;;;21.64;41.41;101335.81;5039966;28;20038;-43
2022/05/31 00:56:15;;;;;;;0.93;0.93;;;;;;;21.64;41.12;101325.34;5064883;28;20067;-40
2022/05/31 00:59:07;;;;;;;1.35;1.20;;;;;;;21.63;40.96;101332.34;5031382;28;20043;-40
2022/05/31 01:01:34;;;;;;;1.63;0.90;;;;;;;21.64;41.02;101335.81;5046248;28;20099;-39
2022/05/31 01:04:03;;;;;;;1.10;0.90;;;;;;;21.63;40.61;101339.28;5071234;28;20377;-41
2022/05/31 01:06:29;;;;;;;0.95;0.95;;;;;;;21.63;40.78;101344.50;5069145;28;20037;-42
2022/05/31 01:08:57;;;;;;;0.80;0.80;;;;;;;21.63;41.22;101339.28;5060510;28;20043;-39
2022/05/31 01:11:27;;;;;;;0.70;0.70;;;;;;;21.63;41.19;101336.66;5051963;28;20036;-42
2022/05/31 01:13:53;;;;;;;2.35;1.05;;;;;;;21.63;41.00;101328.78;5068984;28;20098;-39
2022/05/31 01:16:18;;;;;;;1.35;1.23;;;;;;;21.63;40.92;101334.03;5073190;28;20465;-42
2022/05/31 01:18:44;;;;;;;3.53;1.25;;;;;;;21.63;41.25;101334.03;5074121;28;20158;-43
2022/05/31 01:21:12;;;;;;;1.60;1.05;;;;;;;21.63;41.29;101328.78;5051027;28;20032;-43
2022/05/31 01:23:45;;;;;;;1.48;0.98;;;;;;;21.62;41.22;101327.91;5066590;28;20048;-46
2022/05/31 01:26:16;;;;;;;0.70;0.70;;;;;;;21.62;41.05;101327.03;5057179;28;20115;-40
2022/05/31 01:29:12;;;;;;;1.20;0.82;;;;;;;21.61;40.98;101331.41;4891590;22;20048;-42
2022/05/31 01:31:53;;;;;;;1.13;1.02;;;;;;;21.63;41.09;101339.28;5026610;28;20030;-40
2022/05/31 01:34:18;;;;;;;0.88;0.88;;;;;;;21.60;41.04;101330.50;5023204;28;20029;-40
2022/05/31 01:36:51;;;;;;;2.00;0.90;;;;;;;21.64;41.04;101335.81;5051340;28;20485;-42
2022/05/31 01:39:28;;;;;;;5.93;1.20;;;;;;;21.62;41.10;101332.25;5043041;28;20026;-40
2022/05/31 01:42:07;;;;;;;2.17;1.25;;;;;;;21.63;41.08;101339.28;5027542;28;20029;-41
2022/05/31 01:44:38;;;;;;;1.00;0.88;;;;;;;21.60;40.90;101335.75;5016982;28;20048;-41
2022/05/31 01:47:03;;;;;;;1.35;1.00;;;;;;;21.61;41.18;101339.25;5052298;28;20030;-41
2022/05/31 01:49:35;;;;;;;0.85;0.77;;;;;;;21.61;40.88;101336.66;5034113;28;20041;-40
2022/05/31 01:52:01;;;;;;;1.27;1.17;;;;;;;21.60;40.67;101341.00;5035188;28;20408;-39
2022/05/31 01:54:27;;;;;;;0.85;0.85;;;;;;;21.58;40.84;101334.84;5027461;28;20094;-38
2022/05/31 01:56:56;;;;;;;0.70;0.70;;;;;;;21.60;40.71;101341.00;5034095;28;20071;-39
2022/05/31 01:59:24;;;;;;;1.90;1.27;;;;;;;21.62;40.95;101340.13;5049139;28;20482;-40
2022/05/31 02:01:49;;;;;;;5.65;1.00;;;;;;;21.60;41.65;101341.00;5021743;28;20034;-39
2022/05/31 02:04:16;;;;;;;0.75;0.75;;;;;;;21.60;40.90;101335.75;5019468;28;20492;-40
2022/05/31 02:06:42;;;;;;;1.00;0.93;;;;;;;21.60;40.62;101341.00;5036939;28;20103;-40
2022/05/31 02:09:11;;;;;;;0.98;0.70;;;;;;;21.60;41.04;101341.00;5017644;28;20491;-41
2022/05/31 02:11:36;;;;;;;0.90;0.82;;;;;;;21.60;40.97;101330.50;5021517;28;20029;-40
2022/05/31 02:14:03;;;;;;;0.98;0.98;;;;;;;21.60;40.70;101330.50;5010813;28;20029;-43
2022/05/31 02:16:28;;;;;;;3.40;1.50;;;;;;;21.59;40.93;101323.50;5040254;28;20482;-41
2022/05/31 02:21:40;;;;;;;0.70;0.70;;;;;;;21.59;40.66;101328.75;5041489;28;20111;-41
2022/05/31 02:24:12;;;;;;;1.45;1.02;;;;;;;21.59;41.43;101327.88;5023219;28;20042;-40
2022/05/31 02:26:41;;;;;;;0.77;0.77;;;;;;;21.59;41.28;101323.50;5000260;28;20044;-41
2022/05/31 02:29:07;;;;;;;0.68;0.68;;;;;;;21.59;40.89;101328.75;5020135;28;20029;-40
2022/05/31 02:31:33;;;;;;;1.40;1.30;;;;;;;21.59;41.04;101328.75;5031777;28;20386;-40
2022/05/31 02:33:58;;;;;;;1.35;1.17;;;;;;;21.58;40.96;101326.97;5024824;28;20044;-41
2022/05/31 02:36:24;;;;;;;3.10;0.88;;;;;;;21.59;40.84;101328.75;5025064;28;20025;-39
2022/05/31 02:38:52;;;;;;;1.40;0.88;;;;;;;21.59;40.73;101333.13;5051146;28;20424;-39
2022/05/31 02:41:17;;;;;;;0.70;0.70;;;;;;;21.60;40.66;101334.88;5040041;28;20482;-44
2022/05/31 02:43:45;;;;;;;0.80;0.80;;;;;;;21.59;40.80;101333.97;5015403;28;20040;-41
2022/05/31 02:46:10;;;;;;;1.00;0.90;;;;;;;21.58;40.84;101329.59;5022569;28;20501;-41
2022/05/31 02:48:36;;;;;;;0.68;0.68;;;;;;;21.58;40.99;101332.22;5020695;28;20067;-44
2022/05/31 02:51:02;;;;;;;1.48;1.30;;;;;;;21.57;40.66;101325.22;5041184;28;20372;-40
2022/05/31 02:53:32;;;;;;;1.02;1.00;;;;;;;21.57;40.80;101325.22;5028378;28;20417;-42
2022/05/31 02:55:58;;;;;;;1.27;1.20;;;;;;;21.57;40.97;101325.22;5011326;28;20115;-48
2022/05/31 02:58:27;;;;;;;0.70;0.70;;;;;;;21.58;41.11;101332.22;5027808;28;20163;-41
2022/05/31 03:00:53;;;;;;;0.90;0.85;;;;;;;21.57;40.56;101330.47;5048176;28;20384;-40
2022/05/31 03:03:18;;;;;;;1.77;0.80;;;;;;;21.56;40.63;101328.69;5033958;28;20028;-44
2022/05/31 03:05:44;;;;;;;1.70;0.80;;;;;;;21.57;40.80;101325.22;5027737;28;20033;-40
2022/05/31 03:08:09;;;;;;;0.70;0.70;;;;;;;21.57;40.65;101325.22;5003958;28;20037;-41
2022/05/31 03:10:37;;;;;;;1.17;0.73;;;;;;;21.57;41.05;101330.47;5039133;28;20032;-41
2022/05/31 03:13:03;;;;;;;0.70;0.70;;;;;;;21.58;41.13;101331.34;5025899;28;20485;-40
2022/05/31 03:15:31;;;;;;;1.33;0.88;;;;;;;21.58;40.97;101331.34;5042956;28;20067;-44
2022/05/31 03:18:02;;;;;;;1.17;0.70;;;;;;;21.58;40.98;101326.13;5014028;28;20474;-43
2022/05/31 03:20:33;;;;;;;0.70;0.70;;;;;;;21.56;40.87;101323.44;5022577;28;20028;-40
2022/05/31 03:23:05;;;;;;;0.60;0.60;;;;;;;21.58;41.11;101326.13;5008330;28;20037;-46
2022/05/31 03:25:31;;;;;;;1.73;1.42;;;;;;;21.56;40.62;101323.44;5046251;28;20098;-39
2022/05/31 03:27:58;;;;;;;2.05;0.90;;;;;;;21.57;40.81;101314.72;5031231;28;20037;-44
2022/05/31 03:30:24;;;;;;;1.20;1.10;;;;;;;21.56;40.76;101328.69;5012156;28;20025;-39
2022/05/31 03:32:50;;;;;;;1.48;0.90;;;;;;;21.57;40.57;101325.22;5030952;28;20044;-41
2022/05/31 03:35:18;;;;;;;0.77;0.73;;;;;;;21.57;40.67;101319.97;5017079;28;20028;-41
2022/05/31 03:37:43;;;;;;;0.82;0.82;;;;;;;21.57;40.86;101325.22;5050883;28;20037;-39
2022/05/31 03:40:09;;;;;;;0.75;0.75;;;;;;;21.54;40.99;101319.94;5051927;28;20032;-40
2022/05/31 03:42:35;;;;;;;0.85;0.80;;;;;;;21.56;41.11;101333.94;5034147;28;20513;-40
2022/05/31 03:45:00;;;;;;;0.70;0.70;;;;;;;21.56;40.82;101333.94;5041740;28;20112;-39
2022/05/31 03:47:25;;;;;;;2.17;0.82;;;;;;;21.56;40.70;101331.31;5032908;28;20025;-40
2022/05/31 03:49:51;;;;;;;1.35;1.20;;;;;;;21.57;40.49;101326.97;5015695;28;20149;-39
2022/05/31 03:52:17;;;;;;;1.05;0.95;;;;;;;21.57;40.53;101324.34;5045841;28;20501;-39
2022/05/31 03:54:45;;;;;;;0.93;0.90;;;;;;;21.56;40.73;101327.84;5025651;28;20144;-40
2022/05/31 03:57:16;;;;;;;0.60;0.60;;;;;;;21.56;40.69;101333.06;5050327;28;20064;-40
2022/05/31 03:59:42;;;;;;;1.02;0.95;;;;;;;21.56;40.56;101333.94;5024858;28;20044;-39
2022/05/31 04:02:07;;;;;;;0.65;0.65;;;;;;;21.58;40.34;101336.59;5020014;28;20017;-39
2022/05/31 04:04:35;;;;;;;0.68;0.68;;;;;;;21.56;40.58;101333.94;5021625;28;20517;-39
2022/05/31 04:07:01;;;;;;;0.90;0.90;;;;;;;21.57;40.44;101335.69;5012187;28;20080;-39
2022/05/31 04:09:26;;;;;;;1.05;0.95;;;;;;;21.60;40.74;101343.59;5045934;28;20029;-40
2022/05/31 04:11:54;;;;;;;0.70;0.70;;;;;;;21.63;40.40;101334.03;5037045;28;20117;-40
2022/05/31 04:14:20;;;;;;;0.70;0.70;;;;;;;21.67;40.27;101336.75;5046514;28;20072;-40
2022/05/31 04:16:45;;;;;;;0.65;0.65;;;;;;;21.70;39.73;101341.16;5031709;28;20037;-45
2022/05/31 04:19:13;;;;;;;0.80;0.80;;;;;;;21.65;40.39;101332.34;5030317;28;20103;-39
2022/05/31 04:21:38;;;;;;;0.98;0.85;;;;;;;21.65;40.14;101338.47;5045569;28;20064;-42
2022/05/31 04:24:11;;;;;;;0.73;0.73;;;;;;;21.64;40.14;101341.06;5046865;28;20032;-43
2022/05/31 04:26:47;;;;;;;0.68;0.68;;;;;;;21.62;40.40;101337.50;5029535;28;20035;-39
2022/05/31 04:29:15;;;;;;;4.25;0.90;;;;;;;21.60;40.29;101338.38;5024052;28;20029;-40
2022/05/31 04:31:40;;;;;;;0.80;0.80;;;;;;;21.59;40.24;101333.97;5032844;28;20386;-40
2022/05/31 04:34:08;;;;;;;1.00;0.80;;;;;;;21.60;39.99;101337.50;5024643;28;20026;-39
2022/05/31 04:36:36;;;;;;;1.17;1.17;;;;;;;21.58;40.35;101334.84;5018458;28;20087;-39
2022/05/31 04:39:03;;;;;;;1.10;1.10;;;;;;;21.59;40.43;101339.22;5014264;28;20040;-40
2022/05/31 04:41:29;;;;;;;0.70;0.70;;;;;;;21.56;39.99;101333.94;5019494;28;20044;-40
2022/05/31 04:43:56;;;;;;;0.70;0.70;;;;;;;21.56;40.14;101339.19;5028618;28;20036;-40
2022/05/31 04:46:24;;;;;;;0.95;0.95;;;;;;;21.58;40.24;101345.31;5030944;28;20025;-40
2022/05/31 04:48:52;;;;;;;0.73;0.47;;;;;;;21.59;40.18;101344.47;5031576;28;20108;-39
2022/05/31 04:51:17;;;;;;;0.82;0.82;;;;;;;21.59;40.62;101347.09;5051244;28;20121;-40
2022/05/31 04:53:43;;;;;;;0.90;0.63;;;;;;;21.59;40.20;101349.72;5022037;28;20111;-39
2022/05/31 04:56:13;;;;;;;0.85;0.70;;;;;;;21.59;40.23;101339.22;5052973;28;20103;-39
2022/05/31 04:58:41;;;;;;;0.85;0.85;;;;;;;21.59;40.31;101333.97;5052459;28;20444;-42
2022/05/31 05:01:07;;;;;;;0.70;0.70;;;;;;;21.60;40.20;101341.00;5028770;28;20025;-44
2022/05/31 05:03:36;;;;;;;0.80;0.80;;;;;;;21.60;40.12;101341.00;5042937;28;20036;-40
2022/05/31 05:06:09;;;;;;;0.88;0.88;;;;;;;21.59;40.20;101336.59;5018587;28;20071;-40
2022/05/31 05:08:35;;;;;;;0.70;0.70;;;;;;;21.60;40.12;101335.75;5032582;28;20028;-39
2022/05/31 05:11:02;;;;;;;0.88;0.88;;;;;;;21.60;40.24;101341.00;5050461;28;20461;-40
2022/05/31 05:13:28;;;;;;;0.63;0.63;;;;;;;21.60;40.22;101341.00;5011037;28;20029;-40
2022/05/31 05:15:55;;;;;;;0.60;0.60;;;;;;;21.60;40.28;101341.00;5014610;28;20390;-39
2022/05/31 05:18:23;;;;;;;1.27;0.82;;;;;;;21.60;40.11;101330.50;5011189;28;20200;-39
2022/05/31 05:20:49;;;;;;;1.10;0.80;;;;;;;21.60;40.23;101338.38;5015497;28;20029;-39
2022/05/31 05:23:14;;;;;;;0.80;0.80;;;;;;;21.60;40.37;101335.75;5051259;28;20040;-39
2022/05/31 05:25:40;;;;;;;0.95;0.95;;;;;;;21.62;39.94;101342.75;5033855;28;20275;-39
2022/05/31 05:30:50;;;;;;;0.70;0.70;;;;;;;21.62;39.83;101348.88;5035084;28;20090;-39
2022/05/31 05:33:18;;;;;;;2.15;0.98;;;;;;;21.60;40.17;101348.00;5032234;28;20047;-40
2022/05/31 05:35:43;;;;;;;0.88;0.88;;;;;;;21.63;40.15;101344.50;5037547;28;20504;-41
2022/05/31 05:38:09;;;;;;;1.15;1.13;;;;;;;21.62;40.11;101348.00;5050167;28;20048;-38
2022/05/31 05:40:35;;;;;;;0.68;0.68;;;;;;;21.63;39.83;101349.75;5017681;28;20035;-37
2022/05/31 05:43:00;;;;;;;1.48;0.90;;;;;;;21.62;40.14;101337.50;5031847;28;20118;-39
2022/05/31 05:45:30;;;;;;;0.85;0.85;;;;;;;21.62;40.11;101337.50;5027746;28;20033;-39
2022/05/31 05:47:55;;;;;;;0.85;0.85;;;;;;;21.67;39.76;101333.25;5026008;28;20048;-37
2022/05/31 05:50:21;;;;;;;1.30;1.20;;;;;;;21.69;40.28;101328.91;5050133;28;20036;-38
2022/05/31 05:52:49;;;;;;;1.45;1.35;;;;;;;21.71;40.25;101337.66;5051667;28;20778;-40
2022/05/31 05:55:14;;;;;;;2.03;1.92;;;;;;;21.74;40.18;101337.75;5033851;28;20035;-40
2022/05/31 05:57:40;;;;;;;5.53;2.15;;;;;;;21.78;40.15;101347.41;5023684;28;20040;-43
2022/05/31 06:00:10;;;;;;;4.72;3.53;;;;;;;19.75;38.91;101339.28;5032695;28;20025;-39
2022/05/31 06:02:37;;;;;;;6.40;4.20;;;;;;;20.15;39.90;101339.31;5028922;28;20045;-42
2022/05/31 06:05:24;;;;;;;5.97;3.30;;;;;;;20.72;40.12;101340.41;5047482;28;20035;-41
2022/05/31 06:07:54;;;;;;;4.60;3.58;;;;;;;21.05;40.88;101345.38;5029816;28;20083;-39
2022/05/31 06:10:29;;;;;;;3.92;3.00;;;;;;;21.25;40.14;101341.34;5031685;28;20029;-38
2022/05/31 06:13:00;;;;;;;4.35;3.70;;;;;;;21.42;40.30;101351.19;5046079;28;20040;-42
2022/05/31 06:15:32;;;;;;;4.07;3.60;;;;;;;21.54;40.36;101346.13;5030641;28;20494;-42
2022/05/31 06:17:59;;;;;;;6.60;3.92;;;;;;;21.64;40.47;101346.31;5025485;28;20079;-40
2022/05/31 06:20:26;;;;;;;5.25;3.95;;;;;;;21.70;40.41;101349.03;5034758;28;20102;-39
2022/05/31 06:22:53;;;;;;;10.63;4.35;;;;;;;21.74;40.48;101348.22;5030328;28;20393;-38
2022/05/31 06:25:23;;;;;;;4.55;3.38;;;;;;;21.78;40.22;101355.28;5037847;28;20033;-38
2022/05/31 06:27:49;;;;;;;4.10;3.75;;;;;;;21.81;40.41;101350.06;5045506;28;20571;-38
2022/05/31 06:30:15;;;;;;;2.97;2.78;;;;;;;21.83;40.51;101347.47;5009850;28;20025;-39
2022/05/31 06:32:41;;;;;;;11.48;4.20;;;;;;;21.87;41.05;101350.16;5046607;28;20094;-39
2022/05/31 06:35:09;;;;;;;6.22;3.50;;;;;;;21.93;40.87;101338.00;5028404;28;20036;-43
2022/05/31 06:37:35;;;;;;;3.53;3.22;;;;;;;21.98;40.97;101352.03;5032655;28;20041;-40
2022/05/31 06:40:00;;;;;;;3.40;3.10;;;;;;;21.98;40.83;101352.03;5050854;28;20474;-38
2022/05/31 06:42:26;;;;;;;5.47;4.00;;;;;;;21.96;41.11;101353.78;5029649;28;20508;-38
2022/05/31 06:44:51;;;;;;;5.30;3.90;;;;;;;21.95;40.91;101352.00;5041343;28;20576;-41
2022/05/31 06:47:20;;;;;;;4.22;3.20;;;;;;;21.93;40.74;101353.72;5047575;28;20029;-42
2022/05/31 06:49:45;;;;;;;7.20;3.30;;;;;;;21.91;40.64;101355.44;5046354;28;20036;-42
2022/05/31 06:57:44;;;;;;;3.83;3.25;;;;;;;21.82;40.94;101351.84;5033242;28;20032;-37
2022/05/31 07:00:12;;;;;;;3.10;2.50;;;;;;;21.79;40.81;101351.81;5045796;28;20059;-39
2022/05/31 07:02:38;;;;;;;5.05;3.08;;;;;;;21.78;40.70;101349.13;5020563;28;20039;-38
2022/05/31 07:05:04;;;;;;;5.90;2.95;;;;;;;21.76;41.20;101349.13;5027739;28;20041;-37
2022/05/31 07:07:29;;;;;;;2.92;2.22;;;;;;;21.75;41.03;101355.25;5024821;28;20405;-40
2022/05/31 07:09:55;;;;;;;2.70;2.45;;;;;;;21.74;41.13;101353.47;5047439;28;20053;-38
2022/05/31 07:12:20;;;;;;;2.35;2.03;;;;;;;21.73;41.01;101351.69;5010556;28;20040;-39
2022/05/31 07:14:46;;;;;;;2.25;2.05;;;;;;;21.73;41.10;101356.94;5024597;28;20029;-39
2022/05/31 07:17:12;;;;;;;2.28;2.08;;;;;;;21.72;41.00;101355.16;5014531;28;20064;-36
2022/05/31 07:19:39;;;;;;;2.15;2.03;;;;;;;21.72;40.84;101356.06;5032311;28;20087;-40
2022/05/31 07:22:04;;;;;;;2.38;2.10;;;;;;;21.71;41.23;101350.78;5030638;28;20037;-38
2022/05/31 07:24:30;;;;;;;2.35;2.08;;;;;;;21.71;41.16;101363.88;5031543;28;20041;-43
2022/05/31 07:26:58;;;;;;;3.47;2.08;;;;;;;21.70;41.16;101351.63;5026919;28;20044;-39
2022/05/31 07:29:24;;;;;;;2.28;1.95;;;;;;;21.72;40.94;101355.16;5084690;22;20048;-37
2022/05/31 07:31:49;;;;;;;1.73;1.60;;;;;;;21.73;41.38;101351.69;5028752;28;21319;-40
2022/05/31 07:34:16;;;;;;;1.50;1.40;;;;;;;21.73;41.28;101357.81;5022560;28;20074;-37
2022/05/31 07:36:44;;;;;;;3.45;2.25;;;;;;;21.74;41.24;101348.22;5042447;28;20059;-37
2022/05/31 07:39:11;;;;;;;1.50;1.40;;;;;;;21.74;41.13;101343.00;5022839;28;20080;-37
2022/05/31 07:41:39;;;;;;;1.83;1.50;;;;;;;21.67;40.18;101348.97;5007989;28;20029;-39
2022/05/31 07:44:08;;;;;;;3.00;1.90;;;;;;;21.69;41.22;101352.50;5042160;28;20025;-38
2022/05/31 07:46:34;;;;;;;1.58;1.48;;;;;;;21.70;41.23;101351.63;5038227;28;20500;-37
2022/05/31 07:49:01;;;;;;;5.60;1.60;;;;;;;21.70;41.23;101349.91;5027046;28;20060;-37
2022/05/31 07:51:28;;;;;;;1.52;1.42;;;;;;;21.71;41.09;101349.06;5047139;28;20538;-37
2022/05/31 07:53:54;;;;;;;1.33;1.23;;;;;;;21.71;41.23;101348.16;5026552;28;20090;-40
2022/05/31 07:56:20;;;;;;;2.78;1.30;;;;;;;21.71;41.19;101345.53;5020275;28;20029;-41
2022/05/31 07:58:47;;;;;;;2.33;1.35;;;;;;;21.72;41.04;101344.69;5037743;28;20235;-37
2022/05/31 08:01:17;;;;;;;2.38;1.35;;;;;;;21.72;41.19;101339.44;5031718;28;20029;-38
2022/05/31 08:03:45;;;;;;;6.80;1.60;;;;;;;21.72;41.19;101344.69;5030415;28;20061;-38
2022/05/31 08:06:19;;;;;;;0.70;0.70;;;;;;;21.72;41.02;101342.06;5031237;28;20026;-42
2022/05/31 08:08:44;;;;;;;1.90;1.52;;;;;;;21.73;41.29;101342.09;5002183;28;20120;-37
2022/05/31 08:11:16;;;;;;;1.73;1.33;;;;;;;21.72;41.09;101334.19;5042841;28;20089;-39
2022/05/31 08:13:42;;;;;;;2.58;1.23;;;;;;;21.72;41.41;101340.34;5030200;28;20456;-38
2022/05/31 08:17:03;;;;;;;0.85;0.85;;;;;;;21.73;41.36;101333.34;5030652;28;20033;-38
2022/05/31 08:19:29;;;;;;;1.17;1.00;;;;;;;21.73;41.21;101330.72;5040339;28;20125;-40
2022/05/31 08:21:55;;;;;;;1.27;1.17;;;;;;;21.70;41.43;101326.31;5030519;28;20707;-38
2022/05/31 08:24:20;;;;;;;1.20;1.00;;;;;;;21.71;41.30;101328.09;5012031;28;20025;-40
2022/05/31 08:26:47;;;;;;;1.08;0.98;;;;;;;21.71;41.58;101327.19;5030554;28;20068;-40
2022/05/31 08:29:12;;;;;;;2.60;1.38;;;;;;;21.70;41.56;101331.56;5035036;28;20366;-38
2022/05/31 08:31:38;;;;;;;1.40;0.98;;;;;;;21.70;41.36;101320.19;5019196;28;20302;-39
2022/05/31 08:34:04;;;;;;;0.93;0.93;;;;;;;21.70;41.31;101314.94;5045708;28;20029;-39
2022/05/31 08:36:30;;;;;;;0.82;0.82;;;;;;;21.70;41.26;101317.56;5032315;28;20029;-40
2022/05/31 08:38:55;;;;;;;2.50;1.08;;;;;;;21.70;41.59;101325.41;5028594;28;20070;-37
2022/05/31 08:41:32;;;;;;;3.78;1.83;;;;;;;21.54;40.32;101313.81;5030969;28;20056;-40
2022/05/31 08:44:06;;;;;;;1.35;1.02;;;;;;;21.60;40.89;101309.53;5028149;28;20064;-38
2022/05/31 08:46:52;;;;;;;1.15;0.80;;;;;;;21.66;40.95;101302.66;5039781;28;20033;-38
2022/05/31 08:52:50;;;;;;;0.70;0.70;;;;;;;21.72;41.35;101307.97;5051072;28;20124;-37
2022/05/31 08:58:37;;;;;;;2.42;1.00;;;;;;;21.75;41.34;101300.19;5043547;28;20429;-42
2022/05/31 09:01:03;;;;;;;1.17;0.88;;;;;;;21.77;41.23;101294.94;5014134;28;20045;-37
2022/05/31 09:03:44;;;;;;;1.60;1.10;;;;;;;21.77;40.81;101290.59;5028894;28;20041;-42
2022/05/31 09:06:12;;;;;;;0.73;0.73;;;;;;;21.77;41.33;101293.22;5045707;28;20040;-46
2022/05/31 09:08:55;;;;;;;5.60;2.25;;;;;;;21.79;41.21;101287.97;5006568;28;20088;-38
2022/05/31 09:11:28;;;;;;;1.88;1.48;;;;;;;21.79;41.68;101283.63;5037405;28;20025;-38
2022/05/31 09:14:00;;;;;;;2.00;1.15;;;;;;;21.82;41.19;101288.03;5045494;28;20061;-38
2022/05/31 09:16:41;;;;;;;1.00;0.93;;;;;;;21.82;40.98;101281.03;5032567;28;20022;-37
2022/05/31 09:19:10;;;;;;;1.48;1.10;;;;;;;21.82;41.28;101283.66;5015946;28;20030;-37
2022/05/31 09:21:40;;;;;;;2.03;1.00;;;;;;;21.83;41.47;101287.16;5023591;28;20145;-38
2022/05/31 09:24:08;;;;;;;2.28;1.05;;;;;;;21.86;41.33;101289.81;5028425;28;20041;-40
2022/05/31 09:27:07;;;;;;;1.98;1.45;;;;;;;21.90;41.29;101291.63;5010642;28;20033;-40
2022/05/31 09:29:51;;;;;;;1.92;1.13;;;;;;;21.91;41.56;101289.88;5041271;28;20115;-40
2022/05/31 09:32:47;;;;;;;2.40;1.38;;;;;;;21.93;41.50;101290.78;5023794;28;20040;-42
2022/05/31 09:35:34;;;;;;;3.67;1.70;;;;;;;21.96;41.44;101285.59;5024065;28;20149;-37
2022/05/31 09:38:31;;;;;;;2.03;1.35;;;;;;;21.96;41.67;101288.19;5040527;28;20037;-38
2022/05/31 09:41:06;;;;;;;0.90;0.90;;;;;;;21.97;41.58;101287.34;5032319;28;20112;-39
2022/05/31 09:44:04;;;;;;;2.05;1.13;;;;;;;21.98;41.64;101278.63;5042241;28;20032;-37
2022/05/31 09:46:40;;;;;;;0.85;0.85;;;;;;;21.98;41.65;101283.84;5040916;28;20051;-37
2022/05/31 09:49:23;;;;;;;5.03;1.58;;;;;;;21.97;41.90;101276.84;5044525;28;20045;-38
2022/05/31 09:51:48;;;;;;;3.80;1.33;;;;;;;21.97;41.91;101282.09;5015203;28;20397;-42
2022/05/31 09:57:06;;;;;;;2.45;1.35;;;;;;;21.94;41.56;101277.69;5023742;28;20036;-40
2022/05/31 09:59:34;;;;;;;1.23;1.00;;;;;;;21.93;41.57;101277.69;5041199;28;20038;-37
2022/05/31 10:02:14;;;;;;;0.77;0.77;;;;;;;21.93;41.87;101270.69;5015428;28;20037;-38
2022/05/31 10:04:41;;;;;;;1.67;0.88;;;;;;;21.92;41.82;101274.16;5030391;28;20047;-37
2022/05/31 10:07:08;;;;;;;0.82;0.82;;;;;;;21.92;41.62;101271.53;5011591;28;20037;-39
2022/05/31 10:09:42;;;;;;;2.85;0.95;;;;;;;21.92;41.59;101268.06;5013881;28;20032;-37
2022/05/31 10:12:13;;;;;;;2.92;0.88;;;;;;;21.89;41.53;101274.13;5020662;28;20496;-41
2022/05/31 10:14:48;;;;;;;0.95;0.85;;;;;;;21.89;41.59;101264.53;5046298;28;20041;-42
2022/05/31 10:17:29;;;;;;;1.50;0.90;;;;;;;21.87;41.64;101266.25;5048945;28;20040;-43
2022/05/31 10:20:15;;;;;;;2.05;1.20;;;;;;;21.88;41.69;101273.25;5037440;28;20025;-38
2022/05/31 10:22:54;;;;;;;0.57;0.57;;;;;;;21.86;41.71;101269.75;5024197;28;20395;-42
2022/05/31 10:25:28;;;;;;;2.17;1.23;;;;;;;21.92;41.68;101271.53;5031583;28;20029;-37
2022/05/31 10:28:09;;;;;;;1.02;0.93;;;;;;;21.89;41.65;101264.53;5028677;28;20120;-37
2022/05/31 10:30:41;;;;;;;1.15;0.93;;;;;;;21.92;41.56;101257.56;5028536;28;20029;-37
2022/05/31 10:33:11;;;;;;;1.30;1.10;;;;;;;21.91;41.56;101255.81;5041414;28;20025;-38
2022/05/31 10:35:40;;;;;;;1.63;1.45;;;;;;;21.92;41.79;101252.31;5025543;28;20044;-38
2022/05/31 10:38:18;;;;;;;0.82;0.82;;;;;;;21.94;41.76;101255.84;5047752;28;20045;-37
2022/05/31 10:41:02;;;;;;;1.42;0.80;;;;;;;21.95;41.90;101253.22;5045470;28;20056;-37
2022/05/31 10:43:41;;;;;;;0.80;0.80;;;;;;;21.95;41.71;101252.34;5014731;28;20029;-38
2022/05/31 10:46:23;;;;;;;4.15;1.33;;;;;;;21.96;41.90;101248.88;5011714;28;20037;-39
2022/05/31 10:48:52;;;;;;;1.10;0.95;;;;;;;21.97;41.58;101253.25;5030638;28;20047;-38
2022/05/31 10:51:42;;;;;;;0.75;0.75;;;;;;;21.96;41.66;101248.88;5015726;28;20533;-38
2022/05/31 10:54:28;;;;;;;0.77;0.77;;;;;;;21.98;41.68;101247.13;5037490;28;20025;-39
2022/05/31 10:57:16;;;;;;;0.70;0.70;;;;;;;21.98;41.92;101247.13;5041419;28;20116;-38
2022/05/31 10:59:46;;;;;;;1.58;0.85;;;;;;;21.96;41.56;101238.38;5012755;28;20075;-43
2022/05/31 11:02:56;;;;;;;1.17;1.08;;;;;;;21.96;41.60;101248.88;5015944;28;20052;-44
2022/05/31 11:05:52;;;;;;;1.30;1.20;;;;;;;21.96;41.71;101243.63;4951133;28;20031;-40
2022/05/31 11:11:35;;;;;;;0.80;0.80;;;;;;;22.03;41.76;101240.19;5026642;28;20129;-39
2022/05/31 11:14:26;;;;;;;5.07;1.15;;;;;;;22.07;42.10;101239.38;5040350;28;20044;-39
2022/05/31 11:16:57;;;;;;;11.77;3.53;;;;;;;22.14;42.68;101225.47;5022951;28;20059;-37
2022/05/31 11:19:41;;;;;;;9.15;3.00;;;;;;;22.23;42.47;101232.53;5039037;28;20036;-42
2022/05/31 11:22:29;;;;;;;5.03;2.25;;;;;;;22.36;43.35;101223.06;5041809;28;20033;-44
2022/05/31 11:25:31;;;;;;;6.45;3.00;;;;;;;22.30;42.71;101217.75;5009466;28;20386;-44
2022/05/31 11:28:23;;;;;;;3.42;1.95;;;;;;;22.31;42.87;101220.41;5043788;28;20044;-42
2022/05/31 11:31:27;;;;;;;2.92;2.42;;;;;;;22.37;43.91;101218.69;5024723;28;20084;-41
2022/05/31 11:34:11;;;;;;;9.13;4.65;;;;;;;22.56;44.64;101225.00;5010270;28;20124;-39
2022/05/31 11:37:07;;;;;;;14.05;5.70;;;;;;;22.72;45.36;101223.41;5039305;28;20033;-40
2022/05/31 11:40:01;;;;;;;11.57;6.07;;;;;;;22.67;45.39;101222.47;5037967;28;20087;-42
2022/05/31 11:42:43;;;;;;;14.00;5.80;;;;;;;22.65;47.70;101224.22;5039444;28;20037;-40
2022/05/31 11:45:14;;;;;;;12.20;5.25;;;;;;;22.65;46.80;101219.84;5041406;28;20037;-40
2022/05/31 11:47:55;;;;;;;10.68;5.32;;;;;;;22.63;47.19;101213.69;5041433;28;20037;-40
2022/05/31 11:50:26;;;;;;;10.40;4.43;;;;;;;22.61;45.98;101212.78;5046793;28;20036;-46
2022/05/31 11:52:54;;;;;;;2.88;2.00;;;;;;;22.12;40.22;101219.31;5043645;28;20063;-40
2022/05/31 11:55:29;;;;;;;1.42;1.08;;;;;;;21.27;36.08;101206.00;5034883;28;20033;-41
2022/05/31 11:58:25;;;;;;;0.90;0.90;;;;;;;21.02;36.79;101216.16;5014042;28;20048;-40
2022/05/31 12:00:59;;;;;;;;;;;;;;;21.06;38.09;101221.44;5036112;28;20033;-38
2022/05/31 12:03:42;;;;;;;1.05;0.90;;;;;;;21.07;36.64;101202.22;5046953;28;20377;-42
2022/05/31 12:06:40;;;;;;;1.75;1.08;;;;;;;21.12;38.21;101205.81;5022051;28;20447;-39